Valdosta/Moody AFB, Georgia
Current Conditions -  °F | °C
As of 10:58 AM on Sunday 23 Nov 2014 (Local Time) from KVAD Reporting Station
Overcast Overcast  
Wind Chill: 70°   Ceiling: 600
Heat Index: 70°   Visibility: 10mi
Dew Point: 68°   Wind: 12mph
Humidity: 94%   Direction: 160°SSE
Pressure: 29.95"   Gusts: NA
Location:  30.96°N, 83.2°W
Report Text: KVAD 231558Z AUTO 16010KT 10SM OVC006 21/20 A2995 RMK AO2 SLP143 T02120202 $
Loading
Personal Weather Stations






























Interactive Weather Map New forecast layout! Learn more

10-Day Weather Forecast

Advertisements
Track Severe Weather on mobile